sensor_id;sensor_type;location;lat;lon;timestamp;P1;durP1;ratioP1;P2;durP2;ratioP2
25299;SDS011;13241;51.208;4.432;2022-11-20T00:01:36;13.43;;;6.20;;
25299;SDS011;13241;51.208;4.432;2022-11-20T00:04:03;8.95;;;5.32;;
25299;SDS011;13241;51.208;4.432;2022-11-20T00:06:31;12.48;;;5.30;;
25299;SDS011;13241;51.208;4.432;2022-11-20T00:08:58;8.43;;;4.65;;
25299;SDS011;13241;51.208;4.432;2022-11-20T00:11:28;9.90;;;6.22;;
25299;SDS011;13241;51.208;4.432;2022-11-20T00:13:57;10.98;;;5.85;;
25299;SDS011;13241;51.208;4.432;2022-11-20T00:16:28;7.13;;;5.03;;
25299;SDS011;13241;51.208;4.432;2022-11-20T00:19:00;8.95;;;5.30;;
25299;SDS011;13241;51.208;4.432;2022-11-20T00:21:28;10.85;;;6.53;;
25299;SDS011;13241;51.208;4.432;2022-11-20T00:23:56;12.60;;;6.63;;
25299;SDS011;13241;51.208;4.432;2022-11-20T00:26:29;10.57;;;6.15;;
25299;SDS011;13241;51.208;4.432;2022-11-20T00:28:57;14.80;;;6.43;;
25299;SDS011;13241;51.208;4.432;2022-11-20T00:31:44;8.65;;;5.55;;
25299;SDS011;13241;51.208;4.432;2022-11-20T00:34:19;11.35;;;5.63;;
25299;SDS011;13241;51.208;4.432;2022-11-20T00:36:46;14.98;;;6.32;;
25299;SDS011;13241;51.208;4.432;2022-11-20T00:39:12;12.38;;;5.55;;
25299;SDS011;13241;51.208;4.432;2022-11-20T00:41:39;9.88;;;5.43;;
25299;SDS011;13241;51.208;4.432;2022-11-20T00:44:06;15.90;;;6.15;;
25299;SDS011;13241;51.208;4.432;2022-11-20T00:46:35;10.27;;;5.88;;
25299;SDS011;13241;51.208;4.432;2022-11-20T00:49:02;11.90;;;5.93;;
25299;SDS011;13241;51.208;4.432;2022-11-20T00:51:30;13.23;;;5.22;;
25299;SDS011;13241;51.208;4.432;2022-11-20T00:53:57;11.52;;;6.43;;
25299;SDS011;13241;51.208;4.432;2022-11-20T00:56:26;10.13;;;5.70;;
25299;SDS011;13241;51.208;4.432;2022-11-20T00:58:53;10.30;;;5.43;;
25299;SDS011;13241;51.208;4.432;2022-11-20T01:01:22;10.45;;;6.47;;
25299;SDS011;13241;51.208;4.432;2022-11-20T01:03:52;9.98;;;5.53;;
25299;SDS011;13241;51.208;4.432;2022-11-20T01:08:57;10.50;;;5.45;;
25299;SDS011;13241;51.208;4.432;2022-11-20T01:11:27;12.30;;;6.68;;
25299;SDS011;13241;51.208;4.432;2022-11-20T01:13:57;19.17;;;7.18;;
25299;SDS011;13241;51.208;4.432;2022-11-20T01:16:27;14.85;;;6.25;;
25299;SDS011;13241;51.208;4.432;2022-11-20T01:18:57;13.43;;;7.10;;
25299;SDS011;13241;51.208;4.432;2022-11-20T01:21:27;15.85;;;6.15;;
25299;SDS011;13241;51.208;4.432;2022-11-20T01:23:56;12.00;;;5.95;;
25299;SDS011;13241;51.208;4.432;2022-11-20T01:26:26;12.13;;;6.18;;
25299;SDS011;13241;51.208;4.432;2022-11-20T01:28:55;10.68;;;5.97;;
25299;SDS011;13241;51.208;4.432;2022-11-20T01:31:29;15.73;;;6.47;;
25299;SDS011;13241;51.208;4.432;2022-11-20T01:34:01;13.60;;;6.50;;
25299;SDS011;13241;51.208;4.432;2022-11-20T01:36:30;9.55;;;5.82;;
25299;SDS011;13241;51.208;4.432;2022-11-20T01:39:00;12.05;;;6.07;;
25299;SDS011;13241;51.208;4.432;2022-11-20T01:41:31;15.60;;;7.15;;
25299;SDS011;13241;51.208;4.432;2022-11-20T01:44:19;10.77;;;5.82;;
25299;SDS011;13241;51.208;4.432;2022-11-20T01:46:57;12.65;;;6.50;;
25299;SDS011;13241;51.208;4.432;2022-11-20T01:49:33;12.40;;;6.40;;
25299;SDS011;13241;51.208;4.432;2022-11-20T01:55:06;10.52;;;5.88;;
25299;SDS011;13241;51.208;4.432;2022-11-20T01:57:35;10.80;;;6.25;;
25299;SDS011;13241;51.208;4.432;2022-11-20T02:00:06;12.55;;;6.47;;
25299;SDS011;13241;51.208;4.432;2022-11-20T02:02:41;13.05;;;6.10;;
25299;SDS011;13241;51.208;4.432;2022-11-20T02:05:14;13.38;;;7.07;;
25299;SDS011;13241;51.208;4.432;2022-11-20T02:08:06;16.73;;;7.28;;
25299;SDS011;13241;51.208;4.432;2022-11-20T02:10:36;13.75;;;6.90;;
25299;SDS011;13241;51.208;4.432;2022-11-20T02:13:04;11.93;;;6.65;;
25299;SDS011;13241;51.208;4.432;2022-11-20T02:15:49;13.27;;;6.72;;
25299;SDS011;13241;51.208;4.432;2022-11-20T02:18:17;15.38;;;8.05;;
25299;SDS011;13241;51.208;4.432;2022-11-20T02:20:46;17.92;;;5.50;;
25299;SDS011;13241;51.208;4.432;2022-11-20T02:23:32;15.02;;;6.68;;
25299;SDS011;13241;51.208;4.432;2022-11-20T02:26:04;10.75;;;5.72;;
25299;SDS011;13241;51.208;4.432;2022-11-20T02:28:36;15.50;;;7.22;;
25299;SDS011;13241;51.208;4.432;2022-11-20T02:31:04;12.50;;;5.60;;
25299;SDS011;13241;51.208;4.432;2022-11-20T02:33:31;14.77;;;6.60;;
25299;SDS011;13241;51.208;4.432;2022-11-20T02:35:58;14.25;;;5.53;;
25299;SDS011;13241;51.208;4.432;2022-11-20T02:38:25;18.17;;;7.32;;
25299;SDS011;13241;51.208;4.432;2022-11-20T02:40:52;22.27;;;8.32;;
25299;SDS011;13241;51.208;4.432;2022-11-20T02:43:21;12.05;;;6.35;;
25299;SDS011;13241;51.208;4.432;2022-11-20T02:45:48;10.52;;;5.82;;
25299;SDS011;13241;51.208;4.432;2022-11-20T02:48:15;15.85;;;6.45;;
25299;SDS011;13241;51.208;4.432;2022-11-20T02:50:42;14.60;;;6.55;;
25299;SDS011;13241;51.208;4.432;2022-11-20T02:53:09;11.65;;;6.88;;
25299;SDS011;13241;51.208;4.432;2022-11-20T02:55:36;12.98;;;6.20;;
25299;SDS011;13241;51.208;4.432;2022-11-20T02:58:03;12.90;;;6.95;;
25299;SDS011;13241;51.208;4.432;2022-11-20T03:00:29;14.80;;;7.75;;
25299;SDS011;13241;51.208;4.432;2022-11-20T03:02:56;16.70;;;6.47;;
25299;SDS011;13241;51.208;4.432;2022-11-20T03:05:23;19.00;;;7.50;;
25299;SDS011;13241;51.208;4.432;2022-11-20T03:07:50;13.35;;;7.10;;
25299;SDS011;13241;51.208;4.432;2022-11-20T03:10:17;12.68;;;7.10;;
25299;SDS011;13241;51.208;4.432;2022-11-20T03:12:44;14.82;;;7.70;;
25299;SDS011;13241;51.208;4.432;2022-11-20T03:15:11;13.75;;;6.88;;
25299;SDS011;13241;51.208;4.432;2022-11-20T03:17:38;13.70;;;7.15;;
25299;SDS011;13241;51.208;4.432;2022-11-20T03:20:05;18.85;;;8.48;;
25299;SDS011;13241;51.208;4.432;2022-11-20T03:22:32;18.60;;;6.78;;
25299;SDS011;13241;51.208;4.432;2022-11-20T03:24:59;17.58;;;7.60;;
25299;SDS011;13241;51.208;4.432;2022-11-20T03:27:31;14.25;;;7.38;;
25299;SDS011;13241;51.208;4.432;2022-11-20T03:30:05;15.70;;;8.02;;
25299;SDS011;13241;51.208;4.432;2022-11-20T03:32:33;18.38;;;7.80;;
25299;SDS011;13241;51.208;4.432;2022-11-20T03:35:00;17.25;;;7.75;;
25299;SDS011;13241;51.208;4.432;2022-11-20T03:37:27;18.42;;;8.32;;
25299;SDS011;13241;51.208;4.432;2022-11-20T03:39:54;14.90;;;6.75;;
25299;SDS011;13241;51.208;4.432;2022-11-20T03:42:20;20.33;;;9.27;;
25299;SDS011;13241;51.208;4.432;2022-11-20T03:45:06;19.17;;;7.65;;
25299;SDS011;13241;51.208;4.432;2022-11-20T03:47:33;24.67;;;10.05;;
25299;SDS011;13241;51.208;4.432;2022-11-20T03:50:00;21.90;;;9.13;;
25299;SDS011;13241;51.208;4.432;2022-11-20T03:52:27;18.00;;;8.73;;
25299;SDS011;13241;51.208;4.432;2022-11-20T03:54:54;16.90;;;8.90;;
25299;SDS011;13241;51.208;4.432;2022-11-20T03:57:22;18.20;;;8.55;;
25299;SDS011;13241;51.208;4.432;2022-11-20T03:59:50;22.52;;;10.68;;
25299;SDS011;13241;51.208;4.432;2022-11-20T04:02:17;30.77;;;9.05;;
25299;SDS011;13241;51.208;4.432;2022-11-20T04:04:44;22.20;;;9.15;;
25299;SDS011;13241;51.208;4.432;2022-11-20T04:07:10;23.77;;;9.18;;
25299;SDS011;13241;51.208;4.432;2022-11-20T04:09:37;19.10;;;9.88;;
25299;SDS011;13241;51.208;4.432;2022-11-20T04:12:04;20.42;;;8.38;;
25299;SDS011;13241;51.208;4.432;2022-11-20T04:14:31;20.60;;;9.95;;
25299;SDS011;13241;51.208;4.432;2022-11-20T04:16:57;22.02;;;9.02;;
25299;SDS011;13241;51.208;4.432;2022-11-20T04:19:24;24.88;;;11.10;;
25299;SDS011;13241;51.208;4.432;2022-11-20T04:21:52;29.42;;;11.77;;
25299;SDS011;13241;51.208;4.432;2022-11-20T04:24:19;27.00;;;10.70;;
25299;SDS011;13241;51.208;4.432;2022-11-20T04:26:46;24.38;;;9.43;;
25299;SDS011;13241;51.208;4.432;2022-11-20T04:29:13;31.52;;;11.90;;
25299;SDS011;13241;51.208;4.432;2022-11-20T04:31:41;23.60;;;10.90;;
25299;SDS011;13241;51.208;4.432;2022-11-20T04:34:10;22.20;;;9.98;;
25299;SDS011;13241;51.208;4.432;2022-11-20T04:36:39;16.88;;;8.68;;
25299;SDS011;13241;51.208;4.432;2022-11-20T04:39:06;25.85;;;11.07;;
25299;SDS011;13241;51.208;4.432;2022-11-20T04:41:34;17.52;;;8.65;;
25299;SDS011;13241;51.208;4.432;2022-11-20T04:44:03;28.55;;;10.23;;
25299;SDS011;13241;51.208;4.432;2022-11-20T04:46:37;18.50;;;8.93;;
25299;SDS011;13241;51.208;4.432;2022-11-20T04:49:06;22.67;;;10.05;;
25299;SDS011;13241;51.208;4.432;2022-11-20T04:51:33;21.95;;;10.00;;
25299;SDS011;13241;51.208;4.432;2022-11-20T04:54:00;26.50;;;11.00;;
25299;SDS011;13241;51.208;4.432;2022-11-20T04:56:27;21.83;;;10.32;;
25299;SDS011;13241;51.208;4.432;2022-11-20T04:58:54;22.17;;;10.55;;
25299;SDS011;13241;51.208;4.432;2022-11-20T05:01:22;17.50;;;7.72;;
25299;SDS011;13241;51.208;4.432;2022-11-20T05:03:50;19.48;;;9.18;;
25299;SDS011;13241;51.208;4.432;2022-11-20T05:06:19;20.77;;;10.05;;
25299;SDS011;13241;51.208;4.432;2022-11-20T05:08:47;26.90;;;9.93;;
25299;SDS011;13241;51.208;4.432;2022-11-20T05:11:15;19.48;;;9.50;;
25299;SDS011;13241;51.208;4.432;2022-11-20T05:13:45;17.25;;;8.13;;
25299;SDS011;13241;51.208;4.432;2022-11-20T05:16:17;30.73;;;10.63;;
25299;SDS011;13241;51.208;4.432;2022-11-20T05:18:46;28.38;;;9.95;;
25299;SDS011;13241;51.208;4.432;2022-11-20T05:21:14;17.55;;;9.90;;
25299;SDS011;13241;51.208;4.432;2022-11-20T05:23:42;25.60;;;9.68;;
25299;SDS011;13241;51.208;4.432;2022-11-20T05:26:17;18.70;;;8.95;;
25299;SDS011;13241;51.208;4.432;2022-11-20T05:28:45;24.83;;;8.40;;
25299;SDS011;13241;51.208;4.432;2022-11-20T05:31:14;30.42;;;10.38;;
25299;SDS011;13241;51.208;4.432;2022-11-20T05:33:50;25.95;;;11.15;;
25299;SDS011;13241;51.208;4.432;2022-11-20T05:36:17;22.27;;;10.00;;
25299;SDS011;13241;51.208;4.432;2022-11-20T05:38:44;19.05;;;9.65;;
25299;SDS011;13241;51.208;4.432;2022-11-20T05:41:17;18.45;;;10.50;;
25299;SDS011;13241;51.208;4.432;2022-11-20T05:43:45;21.10;;;9.73;;
25299;SDS011;13241;51.208;4.432;2022-11-20T05:46:14;24.08;;;10.00;;
25299;SDS011;13241;51.208;4.432;2022-11-20T05:48:43;19.52;;;8.93;;
25299;SDS011;13241;51.208;4.432;2022-11-20T05:51:12;21.35;;;9.07;;
25299;SDS011;13241;51.208;4.432;2022-11-20T05:53:41;19.83;;;10.65;;
25299;SDS011;13241;51.208;4.432;2022-11-20T05:56:15;21.33;;;10.98;;
25299;SDS011;13241;51.208;4.432;2022-11-20T05:58:44;22.70;;;9.93;;
25299;SDS011;13241;51.208;4.432;2022-11-20T06:01:12;25.45;;;10.45;;
25299;SDS011;13241;51.208;4.432;2022-11-20T06:03:42;25.48;;;10.60;;
25299;SDS011;13241;51.208;4.432;2022-11-20T06:06:12;22.35;;;10.55;;
25299;SDS011;13241;51.208;4.432;2022-11-20T06:08:40;21.08;;;9.77;;
25299;SDS011;13241;51.208;4.432;2022-11-20T06:11:08;17.60;;;9.07;;
25299;SDS011;13241;51.208;4.432;2022-11-20T06:13:36;29.38;;;10.32;;
25299;SDS011;13241;51.208;4.432;2022-11-20T06:16:08;23.60;;;11.38;;
25299;SDS011;13241;51.208;4.432;2022-11-20T06:18:35;21.75;;;9.25;;
25299;SDS011;13241;51.208;4.432;2022-11-20T06:21:07;20.02;;;10.05;;
25299;SDS011;13241;51.208;4.432;2022-11-20T06:23:41;24.92;;;9.27;;
25299;SDS011;13241;51.208;4.432;2022-11-20T06:26:09;25.13;;;10.45;;
25299;SDS011;13241;51.208;4.432;2022-11-20T06:28:37;18.42;;;8.07;;
25299;SDS011;13241;51.208;4.432;2022-11-20T06:31:05;21.92;;;10.27;;
25299;SDS011;13241;51.208;4.432;2022-11-20T06:33:33;17.52;;;8.90;;
25299;SDS011;13241;51.208;4.432;2022-11-20T06:36:00;24.58;;;10.02;;
25299;SDS011;13241;51.208;4.432;2022-11-20T06:38:35;19.35;;;9.30;;
25299;SDS011;13241;51.208;4.432;2022-11-20T06:41:03;25.35;;;10.05;;
25299;SDS011;13241;51.208;4.432;2022-11-20T06:43:30;25.95;;;10.60;;
25299;SDS011;13241;51.208;4.432;2022-11-20T06:45:58;24.83;;;10.02;;
25299;SDS011;13241;51.208;4.432;2022-11-20T06:48:26;24.67;;;10.05;;
25299;SDS011;13241;51.208;4.432;2022-11-20T06:50:54;23.67;;;10.48;;
25299;SDS011;13241;51.208;4.432;2022-11-20T06:53:22;21.48;;;10.00;;
25299;SDS011;13241;51.208;4.432;2022-11-20T06:55:50;27.02;;;11.77;;
25299;SDS011;13241;51.208;4.432;2022-11-20T06:58:17;22.10;;;9.40;;
25299;SDS011;13241;51.208;4.432;2022-11-20T07:00:44;17.20;;;8.68;;
25299;SDS011;13241;51.208;4.432;2022-11-20T07:03:11;19.98;;;10.20;;
25299;SDS011;13241;51.208;4.432;2022-11-20T07:05:39;18.42;;;9.88;;
25299;SDS011;13241;51.208;4.432;2022-11-20T07:08:06;23.08;;;10.32;;
25299;SDS011;13241;51.208;4.432;2022-11-20T07:10:34;26.67;;;10.70;;
25299;SDS011;13241;51.208;4.432;2022-11-20T07:13:01;24.20;;;10.55;;
25299;SDS011;13241;51.208;4.432;2022-11-20T07:15:28;20.70;;;9.02;;
25299;SDS011;13241;51.208;4.432;2022-11-20T07:17:58;26.92;;;10.18;;
25299;SDS011;13241;51.208;4.432;2022-11-20T07:20:25;16.20;;;8.85;;
25299;SDS011;13241;51.208;4.432;2022-11-20T07:22:56;20.20;;;9.77;;
25299;SDS011;13241;51.208;4.432;2022-11-20T07:25:24;25.98;;;9.88;;
25299;SDS011;13241;51.208;4.432;2022-11-20T07:27:52;25.50;;;9.93;;
25299;SDS011;13241;51.208;4.432;2022-11-20T07:30:23;27.63;;;10.43;;
25299;SDS011;13241;51.208;4.432;2022-11-20T07:32:50;22.35;;;10.07;;
25299;SDS011;13241;51.208;4.432;2022-11-20T07:35:18;26.65;;;10.45;;
25299;SDS011;13241;51.208;4.432;2022-11-20T07:37:45;19.42;;;9.57;;
25299;SDS011;13241;51.208;4.432;2022-11-20T07:40:13;17.52;;;9.35;;
25299;SDS011;13241;51.208;4.432;2022-11-20T07:42:50;24.67;;;10.10;;
25299;SDS011;13241;51.208;4.432;2022-11-20T07:45:19;21.20;;;8.93;;
25299;SDS011;13241;51.208;4.432;2022-11-20T07:47:48;17.98;;;9.25;;
25299;SDS011;13241;51.208;4.432;2022-11-20T07:50:15;18.30;;;9.88;;
25299;SDS011;13241;51.208;4.432;2022-11-20T07:52:42;21.23;;;8.48;;
25299;SDS011;13241;51.208;4.432;2022-11-20T07:55:10;18.27;;;8.45;;
25299;SDS011;13241;51.208;4.432;2022-11-20T07:57:37;22.20;;;8.90;;
25299;SDS011;13241;51.208;4.432;2022-11-20T08:00:04;30.13;;;8.85;;
25299;SDS011;13241;51.208;4.432;2022-11-20T08:02:38;18.50;;;8.70;;
25299;SDS011;13241;51.208;4.432;2022-11-20T08:05:06;26.20;;;9.65;;
25299;SDS011;13241;51.208;4.432;2022-11-20T08:07:37;15.73;;;8.52;;
25299;SDS011;13241;51.208;4.432;2022-11-20T08:10:05;29.48;;;10.80;;
25299;SDS011;13241;51.208;4.432;2022-11-20T08:12:34;21.45;;;9.63;;
25299;SDS011;13241;51.208;4.432;2022-11-20T08:15:19;18.02;;;9.57;;
25299;SDS011;13241;51.208;4.432;2022-11-20T08:17:46;27.02;;;9.30;;
25299;SDS011;13241;51.208;4.432;2022-11-20T08:20:33;24.77;;;9.38;;
25299;SDS011;13241;51.208;4.432;2022-11-20T08:23:01;22.98;;;10.32;;
25299;SDS011;13241;51.208;4.432;2022-11-20T08:25:29;24.98;;;10.45;;
25299;SDS011;13241;51.208;4.432;2022-11-20T08:27:59;17.17;;;7.47;;
25299;SDS011;13241;51.208;4.432;2022-11-20T08:30:41;22.15;;;8.20;;
25299;SDS011;13241;51.208;4.432;2022-11-20T08:33:08;18.58;;;9.30;;
25299;SDS011;13241;51.208;4.432;2022-11-20T08:35:36;14.90;;;7.80;;
25299;SDS011;13241;51.208;4.432;2022-11-20T08:38:05;19.77;;;8.60;;
25299;SDS011;13241;51.208;4.432;2022-11-20T08:40:32;25.92;;;9.95;;
25299;SDS011;13241;51.208;4.432;2022-11-20T08:43:00;22.42;;;9.55;;
25299;SDS011;13241;51.208;4.432;2022-11-20T08:45:29;21.33;;;8.25;;
25299;SDS011;13241;51.208;4.432;2022-11-20T08:48:03;15.05;;;7.03;;
25299;SDS011;13241;51.208;4.432;2022-11-20T08:50:33;15.18;;;7.45;;
25299;SDS011;13241;51.208;4.432;2022-11-20T08:53:03;23.30;;;9.48;;
25299;SDS011;13241;51.208;4.432;2022-11-20T08:55:33;25.48;;;9.18;;
25299;SDS011;13241;51.208;4.432;2022-11-20T08:58:04;18.15;;;8.85;;
25299;SDS011;13241;51.208;4.432;2022-11-20T09:00:32;18.42;;;9.13;;
25299;SDS011;13241;51.208;4.432;2022-11-20T09:03:00;19.83;;;9.80;;
25299;SDS011;13241;51.208;4.432;2022-11-20T09:05:27;17.52;;;9.40;;
25299;SDS011;13241;51.208;4.432;2022-11-20T09:07:59;26.95;;;8.23;;
25299;SDS011;13241;51.208;4.432;2022-11-20T09:10:27;16.40;;;7.68;;
25299;SDS011;13241;51.208;4.432;2022-11-20T09:12:54;25.70;;;10.02;;
25299;SDS011;13241;51.208;4.432;2022-11-20T09:15:23;27.60;;;8.70;;
25299;SDS011;13241;51.208;4.432;2022-11-20T09:17:54;24.52;;;9.45;;
25299;SDS011;13241;51.208;4.432;2022-11-20T09:20:22;19.27;;;9.63;;
25299;SDS011;13241;51.208;4.432;2022-11-20T09:22:50;22.38;;;10.48;;
25299;SDS011;13241;51.208;4.432;2022-11-20T09:25:17;21.48;;;9.00;;
25299;SDS011;13241;51.208;4.432;2022-11-20T09:27:44;33.47;;;15.30;;
25299;SDS011;13241;51.208;4.432;2022-11-20T09:30:14;18.80;;;9.23;;
25299;SDS011;13241;51.208;4.432;2022-11-20T09:32:42;22.90;;;9.55;;
25299;SDS011;13241;51.208;4.432;2022-11-20T09:35:09;28.38;;;10.88;;
25299;SDS011;13241;51.208;4.432;2022-11-20T09:37:37;27.45;;;11.43;;
25299;SDS011;13241;51.208;4.432;2022-11-20T09:40:05;29.10;;;10.43;;
25299;SDS011;13241;51.208;4.432;2022-11-20T09:42:46;26.17;;;10.27;;
25299;SDS011;13241;51.208;4.432;2022-11-20T09:56:45;29.60;;;10.75;;
25299;SDS011;13241;51.208;4.432;2022-11-20T10:02:15;32.60;;;9.63;;
25299;SDS011;13241;51.208;4.432;2022-11-20T10:05:30;25.83;;;10.60;;
25299;SDS011;13241;51.208;4.432;2022-11-20T10:13:39;28.92;;;12.05;;
25299;SDS011;13241;51.208;4.432;2022-11-20T10:16:32;22.52;;;9.68;;
25299;SDS011;13241;51.208;4.432;2022-11-20T10:19:15;29.77;;;10.50;;
25299;SDS011;13241;51.208;4.432;2022-11-20T10:22:12;24.40;;;8.90;;
25299;SDS011;13241;51.208;4.432;2022-11-20T10:25:05;34.03;;;11.10;;
25299;SDS011;13241;51.208;4.432;2022-11-20T10:30:21;28.48;;;11.85;;
25299;SDS011;13241;51.208;4.432;2022-11-20T10:32:52;28.70;;;10.95;;
25299;SDS011;13241;51.208;4.432;2022-11-20T10:35:28;43.53;;;12.75;;
25299;SDS011;13241;51.208;4.432;2022-11-20T10:38:09;55.95;;;19.48;;
25299;SDS011;13241;51.208;4.432;2022-11-20T10:40:45;35.60;;;13.27;;
25299;SDS011;13241;51.208;4.432;2022-11-20T10:43:23;28.35;;;11.60;;
25299;SDS011;13241;51.208;4.432;2022-11-20T10:46:00;28.08;;;12.95;;
25299;SDS011;13241;51.208;4.432;2022-11-20T10:48:30;36.88;;;12.93;;
25299;SDS011;13241;51.208;4.432;2022-11-20T10:56:09;32.67;;;13.50;;
25299;SDS011;13241;51.208;4.432;2022-11-20T10:59:00;35.72;;;13.68;;
25299;SDS011;13241;51.208;4.432;2022-11-20T11:01:51;29.52;;;9.93;;
25299;SDS011;13241;51.208;4.432;2022-11-20T11:04:33;28.35;;;11.43;;
25299;SDS011;13241;51.208;4.432;2022-11-20T11:07:15;29.00;;;10.65;;
25299;SDS011;13241;51.208;4.432;2022-11-20T11:09:56;37.40;;;13.13;;
25299;SDS011;13241;51.208;4.432;2022-11-20T11:12:24;35.83;;;10.80;;
25299;SDS011;13241;51.208;4.432;2022-11-20T11:14:53;30.40;;;11.23;;
25299;SDS011;13241;51.208;4.432;2022-11-20T11:19:58;43.30;;;12.60;;
25299;SDS011;13241;51.208;4.432;2022-11-20T11:22:25;34.35;;;11.10;;
25299;SDS011;13241;51.208;4.432;2022-11-20T11:24:55;32.17;;;13.30;;
25299;SDS011;13241;51.208;4.432;2022-11-20T11:27:22;31.83;;;11.98;;
25299;SDS011;13241;51.208;4.432;2022-11-20T11:29:49;30.20;;;11.25;;
25299;SDS011;13241;51.208;4.432;2022-11-20T11:32:19;59.08;;;19.33;;
25299;SDS011;13241;51.208;4.432;2022-11-20T11:35:00;59.47;;;20.38;;
25299;SDS011;13241;51.208;4.432;2022-11-20T11:37:33;38.45;;;13.13;;
25299;SDS011;13241;51.208;4.432;2022-11-20T11:40:02;48.10;;;14.45;;
25299;SDS011;13241;51.208;4.432;2022-11-20T11:42:52;42.97;;;15.68;;
25299;SDS011;13241;51.208;4.432;2022-11-20T11:45:23;34.78;;;13.93;;
25299;SDS011;13241;51.208;4.432;2022-11-20T11:47:51;25.65;;;11.35;;
25299;SDS011;13241;51.208;4.432;2022-11-20T12:00:47;30.27;;;10.50;;
25299;SDS011;13241;51.208;4.432;2022-11-20T12:03:21;33.85;;;11.88;;
25299;SDS011;13241;51.208;4.432;2022-11-20T12:05:57;30.25;;;10.55;;
25299;SDS011;13241;51.208;4.432;2022-11-20T12:11:13;33.75;;;12.60;;
25299;SDS011;13241;51.208;4.432;2022-11-20T12:16:17;23.83;;;10.43;;
25299;SDS011;13241;51.208;4.432;2022-11-20T12:18:46;26.70;;;10.50;;
25299;SDS011;13241;51.208;4.432;2022-11-20T12:21:21;26.70;;;9.63;;
25299;SDS011;13241;51.208;4.432;2022-11-20T12:38:08;31.40;;;12.65;;
25299;SDS011;13241;51.208;4.432;2022-11-20T12:41:03;36.33;;;12.98;;
25299;SDS011;13241;51.208;4.432;2022-11-20T12:44:16;28.17;;;11.85;;
25299;SDS011;13241;51.208;4.432;2022-11-20T12:47:26;28.25;;;10.32;;
25299;SDS011;13241;51.208;4.432;2022-11-20T12:50:28;17.33;;;8.57;;
25299;SDS011;13241;51.208;4.432;2022-11-20T12:53:30;27.40;;;8.77;;
25299;SDS011;13241;51.208;4.432;2022-11-20T13:02:11;4.50;;;2.30;;
25299;SDS011;13241;51.208;4.432;2022-11-20T13:07:36;5.13;;;2.78;;
25299;SDS011;13241;51.208;4.432;2022-11-20T13:10:03;8.68;;;2.40;;
25299;SDS011;13241;51.208;4.432;2022-11-20T13:12:44;4.45;;;1.70;;
25299;SDS011;13241;51.208;4.432;2022-11-20T13:15:23;3.95;;;1.98;;
25299;SDS011;13241;51.208;4.432;2022-11-20T13:18:15;8.13;;;1.65;;
25299;SDS011;13241;51.208;4.432;2022-11-20T13:20:43;2.47;;;2.28;;
25299;SDS011;13241;51.208;4.432;2022-11-20T13:23:11;5.60;;;2.38;;
25299;SDS011;13241;51.208;4.432;2022-11-20T13:25:48;15.98;;;3.28;;
25299;SDS011;13241;51.208;4.432;2022-11-20T13:30:51;3.97;;;2.20;;
25299;SDS011;13241;51.208;4.432;2022-11-20T13:35:58;3.28;;;1.95;;
25299;SDS011;13241;51.208;4.432;2022-11-20T13:38:48;2.67;;;2.30;;
25299;SDS011;13241;51.208;4.432;2022-11-20T13:41:28;6.20;;;2.47;;
25299;SDS011;13241;51.208;4.432;2022-11-20T13:44:06;5.80;;;2.42;;
25299;SDS011;13241;51.208;4.432;2022-11-20T13:46:36;1.60;;;1.42;;
25299;SDS011;13241;51.208;4.432;2022-11-20T13:49:14;7.63;;;2.83;;
25299;SDS011;13241;51.208;4.432;2022-11-20T14:00:27;9.07;;;2.65;;
25299;SDS011;13241;51.208;4.432;2022-11-20T14:05:51;5.63;;;3.25;;
25299;SDS011;13241;51.208;4.432;2022-11-20T14:08:47;4.15;;;2.10;;
25299;SDS011;13241;51.208;4.432;2022-11-20T14:13:54;9.82;;;4.07;;
25299;SDS011;13241;51.208;4.432;2022-11-20T14:16:28;24.13;;;10.97;;
25299;SDS011;13241;51.208;4.432;2022-11-20T14:18:56;17.10;;;7.53;;
25299;SDS011;13241;51.208;4.432;2022-11-20T14:21:43;34.50;;;12.65;;
25299;SDS011;13241;51.208;4.432;2022-11-20T14:24:14;31.05;;;9.82;;
25299;SDS011;13241;51.208;4.432;2022-11-20T14:27:14;7.80;;;3.03;;
25299;SDS011;13241;51.208;4.432;2022-11-20T14:29:47;5.82;;;2.53;;
25299;SDS011;13241;51.208;4.432;2022-11-20T14:32:17;6.27;;;3.17;;
25299;SDS011;13241;51.208;4.432;2022-11-20T14:34:47;13.50;;;2.40;;
25299;SDS011;13241;51.208;4.432;2022-11-20T14:37:21;6.00;;;1.73;;
25299;SDS011;13241;51.208;4.432;2022-11-20T14:39:54;4.72;;;2.13;;
25299;SDS011;13241;51.208;4.432;2022-11-20T14:42:26;5.88;;;2.03;;
25299;SDS011;13241;51.208;4.432;2022-11-20T14:44:55;2.13;;;1.70;;
25299;SDS011;13241;51.208;4.432;2022-11-20T14:47:28;4.82;;;1.85;;
25299;SDS011;13241;51.208;4.432;2022-11-20T14:49:57;2.97;;;2.37;;
25299;SDS011;13241;51.208;4.432;2022-11-20T14:52:31;5.55;;;1.55;;
25299;SDS011;13241;51.208;4.432;2022-11-20T14:54:58;5.00;;;1.40;;
25299;SDS011;13241;51.208;4.432;2022-11-20T14:57:26;3.13;;;2.05;;
25299;SDS011;13241;51.208;4.432;2022-11-20T15:02:47;1.52;;;1.42;;
25299;SDS011;13241;51.208;4.432;2022-11-20T15:05:16;1.95;;;1.63;;
25299;SDS011;13241;51.208;4.432;2022-11-20T15:07:48;2.63;;;2.10;;
25299;SDS011;13241;51.208;4.432;2022-11-20T15:10:31;4.25;;;2.03;;
25299;SDS011;13241;51.208;4.432;2022-11-20T15:13:00;4.38;;;2.30;;
25299;SDS011;13241;51.208;4.432;2022-11-20T15:15:58;4.32;;;2.55;;
25299;SDS011;13241;51.208;4.432;2022-11-20T15:18:33;4.10;;;2.42;;
25299;SDS011;13241;51.208;4.432;2022-11-20T15:21:12;2.38;;;1.88;;
25299;SDS011;13241;51.208;4.432;2022-11-20T15:23:42;7.82;;;1.80;;
25299;SDS011;13241;51.208;4.432;2022-11-20T15:26:10;5.50;;;2.88;;
25299;SDS011;13241;51.208;4.432;2022-11-20T15:28:46;2.42;;;1.88;;
25299;SDS011;13241;51.208;4.432;2022-11-20T15:31:21;2.38;;;1.77;;
25299;SDS011;13241;51.208;4.432;2022-11-20T15:33:49;2.40;;;1.70;;
25299;SDS011;13241;51.208;4.432;2022-11-20T15:36:16;3.97;;;2.30;;
25299;SDS011;13241;51.208;4.432;2022-11-20T15:38:43;3.78;;;2.40;;
25299;SDS011;13241;51.208;4.432;2022-11-20T15:41:12;2.90;;;1.95;;
25299;SDS011;13241;51.208;4.432;2022-11-20T15:43:45;3.25;;;1.80;;
25299;SDS011;13241;51.208;4.432;2022-11-20T15:46:15;5.07;;;2.08;;
25299;SDS011;13241;51.208;4.432;2022-11-20T15:48:45;8.55;;;2.97;;
25299;SDS011;13241;51.208;4.432;2022-11-20T15:53:55;3.17;;;2.17;;
25299;SDS011;13241;51.208;4.432;2022-11-20T15:56:27;4.07;;;1.88;;
25299;SDS011;13241;51.208;4.432;2022-11-20T15:58:56;2.53;;;1.95;;
25299;SDS011;13241;51.208;4.432;2022-11-20T16:01:26;2.72;;;2.47;;
25299;SDS011;13241;51.208;4.432;2022-11-20T16:03:53;4.07;;;2.28;;
25299;SDS011;13241;51.208;4.432;2022-11-20T16:06:20;9.45;;;3.58;;
25299;SDS011;13241;51.208;4.432;2022-11-20T16:08:47;4.95;;;2.85;;
25299;SDS011;13241;51.208;4.432;2022-11-20T16:11:15;5.68;;;2.92;;
25299;SDS011;13241;51.208;4.432;2022-11-20T16:13:44;6.45;;;3.28;;
25299;SDS011;13241;51.208;4.432;2022-11-20T16:16:33;8.38;;;3.30;;
25299;SDS011;13241;51.208;4.432;2022-11-20T16:19:01;4.70;;;2.67;;
25299;SDS011;13241;51.208;4.432;2022-11-20T16:21:29;9.18;;;2.95;;
25299;SDS011;13241;51.208;4.432;2022-11-20T16:23:59;5.45;;;2.92;;
25299;SDS011;13241;51.208;4.432;2022-11-20T16:26:27;8.80;;;2.33;;
25299;SDS011;13241;51.208;4.432;2022-11-20T16:28:55;13.88;;;3.92;;
25299;SDS011;13241;51.208;4.432;2022-11-20T16:31:22;8.30;;;2.55;;
25299;SDS011;13241;51.208;4.432;2022-11-20T16:33:49;15.70;;;1.95;;
25299;SDS011;13241;51.208;4.432;2022-11-20T16:36:18;8.77;;;2.25;;
25299;SDS011;13241;51.208;4.432;2022-11-20T16:38:46;5.18;;;1.80;;